Aviation Digital Data Service (ADDS)

Output produced by METARs form (2256 UTC 20 January 2019)
found at http://www.aviationweather.gov/metar/data/
 
METAR text: LEMG 202230Z 29010KT 9999 FEW030 11/06 Q1018 NOSIG
Conditions at: LEMG (MALAGA (CIV/MIL), ES) observed 2230 UTC 20 January 2019
Temperature: 11.0°C (52°F)
Dewpoint: 6.0°C (43°F) [RH = 71%]
Pressure (altimeter): 30.06 inches Hg (1018.0 mb)
Winds: from the WNW (290 degrees) at 12 MPH (10 knots; 5.1 m/s)
Visibility: 6 or more miles (10+ km)
Ceiling: at least 12,000 feet AGL
Clouds: few clouds at 3000 feet AGL
Weather: no significant weather observed at this time

METAR text: LEMG 202200Z 29010KT 9999 FEW030 11/06 Q1017 NOSIG
Conditions at: LEMG (MALAGA (CIV/MIL), ES) observed 2200 UTC 20 January 2019
Temperature: 11.0°C (52°F)
Dewpoint: 6.0°C (43°F) [RH = 71%]
Pressure (altimeter): 30.03 inches Hg (1017.0 mb)
Winds: from the WNW (290 degrees) at 12 MPH (10 knots; 5.1 m/s)
Visibility: 6 or more miles (10+ km)
Ceiling: at least 12,000 feet AGL
Clouds: few clouds at 3000 feet AGL
Weather: no significant weather observed at this time

METAR text: LEMG 202130Z 28010KT 9999 FEW030 12/06 Q1017 NOSIG
Conditions at: LEMG (MALAGA (CIV/MIL), ES) observed 2130 UTC 20 January 2019
Temperature: 12.0°C (54°F)
Dewpoint: 6.0°C (43°F) [RH = 67%]
Pressure (altimeter): 30.03 inches Hg (1017.0 mb)
Winds: from the W (280 degrees) at 12 MPH (10 knots; 5.1 m/s)
Visibility: 6 or more miles (10+ km)
Ceiling: at least 12,000 feet AGL
Clouds: few clouds at 3000 feet AGL
Weather: no significant weather observed at this time

METAR text: LEMG 202100Z 28008KT 9999 FEW050 12/06 Q1017 NOSIG
Conditions at: LEMG (MALAGA (CIV/MIL), ES) observed 2100 UTC 20 January 2019
Temperature: 12.0°C (54°F)
Dewpoint: 6.0°C (43°F) [RH = 67%]
Pressure (altimeter): 30.03 inches Hg (1017.0 mb)
Winds: from the W (280 degrees) at 9 MPH (8 knots; 4.1 m/s)
Visibility: 6 or more miles (10+ km)
Ceiling: at least 12,000 feet AGL
Clouds: few clouds at 5000 feet AGL
Weather: no significant weather observed at this time

METAR text: LEMG 202030Z 27008KT 240V300 9999 FEW050 12/06 Q1017 NOSIG
Conditions at: LEMG (MALAGA (CIV/MIL), ES) observed 2030 UTC 20 January 2019
Temperature: 12.0°C (54°F)
Dewpoint: 6.0°C (43°F) [RH = 67%]
Pressure (altimeter): 30.03 inches Hg (1017.0 mb)
Winds: from the W (270 degrees) at 9 MPH (8 knots; 4.1 m/s)
Visibility: 6 or more miles (10+ km)
Ceiling: at least 12,000 feet AGL
Clouds: few clouds at 5000 feet AGL
Weather: no significant weather observed at this time

METAR text: LEMG 202000Z 29007KT 260V330 9999 FEW050 12/07 Q1016 NOSIG
Conditions at: LEMG (MALAGA (CIV/MIL), ES) observed 2000 UTC 20 January 2019
Temperature: 12.0°C (54°F)
Dewpoint: 7.0°C (45°F) [RH = 71%]
Pressure (altimeter): 30.00 inches Hg (1016.0 mb)
Winds: from the WNW (290 degrees) at 8 MPH (7 knots; 3.6 m/s)
Visibility: 6 or more miles (10+ km)
Ceiling: at least 12,000 feet AGL
Clouds: few clouds at 5000 feet AGL
Weather: no significant weather observed at this time

METAR text: LEMG 201930Z 28011KT 9999 FEW050 13/07 Q1016 NOSIG
Conditions at: LEMG (MALAGA (CIV/MIL), ES) observed 1930 UTC 20 January 2019
Temperature: 13.0°C (55°F)
Dewpoint: 7.0°C (45°F) [RH = 67%]
Pressure (altimeter): 30.00 inches Hg (1016.0 mb)
Winds: from the W (280 degrees) at 13 MPH (11 knots; 5.7 m/s)
Visibility: 6 or more miles (10+ km)
Ceiling: at least 12,000 feet AGL
Clouds: few clouds at 5000 feet AGL
Weather: no significant weather observed at this time

METAR text: LEMG 201900Z 27009KT 9999 FEW050 14/07 Q1016 NOSIG
Conditions at: LEMG (MALAGA (CIV/MIL), ES) observed 1900 UTC 20 January 2019
Temperature: 14.0°C (57°F)
Dewpoint: 7.0°C (45°F) [RH = 63%]
Pressure (altimeter): 30.00 inches Hg (1016.0 mb)
Winds: from the W (270 degrees) at 10 MPH (9 knots; 4.6 m/s)
Visibility: 6 or more miles (10+ km)
Ceiling: at least 12,000 feet AGL
Clouds: few clouds at 5000 feet AGL
Weather: no significant weather observed at this time

METAR text: LEMG 201830Z 27009KT 9999 FEW040 14/07 Q1015 NOSIG
Conditions at: LEMG (MALAGA (CIV/MIL), ES) observed 1830 UTC 20 January 2019
Temperature: 14.0°C (57°F)
Dewpoint: 7.0°C (45°F) [RH = 63%]
Pressure (altimeter): 29.97 inches Hg (1015.0 mb)
Winds: from the W (270 degrees) at 10 MPH (9 knots; 4.6 m/s)
Visibility: 6 or more miles (10+ km)
Ceiling: at least 12,000 feet AGL
Clouds: few clouds at 4000 feet AGL
Weather: no significant weather observed at this time

METAR text: LEMG 201800Z 28007KT 9999 FEW035 SCT050 14/08 Q1015 NOSIG
Conditions at: LEMG (MALAGA (CIV/MIL), ES) observed 1800 UTC 20 January 2019
Temperature: 14.0°C (57°F)
Dewpoint: 8.0°C (46°F) [RH = 67%]
Pressure (altimeter): 29.97 inches Hg (1015.0 mb)
Winds: from the W (280 degrees) at 8 MPH (7 knots; 3.6 m/s)
Visibility: 6 or more miles (10+ km)
Ceiling: at least 12,000 feet AGL
Clouds: few clouds at 3500 feet AGL
scattered clouds at 5000 feet AGL
Weather: no significant weather observed at this time

METAR text: LEMG 201730Z 31006KT 9999 FEW035 SCT050 14/08 Q1014 NOSIG
Conditions at: LEMG (MALAGA (CIV/MIL), ES) observed 1730 UTC 20 January 2019
Temperature: 14.0°C (57°F)
Dewpoint: 8.0°C (46°F) [RH = 67%]
Pressure (altimeter): 29.94 inches Hg (1014.0 mb)
Winds: from the NW (310 degrees) at 7 MPH (6 knots; 3.1 m/s)
Visibility: 6 or more miles (10+ km)
Ceiling: at least 12,000 feet AGL
Clouds: few clouds at 3500 feet AGL
scattered clouds at 5000 feet AGL
Weather: no significant weather observed at this time

METAR text: LEMG 201700Z 31009KT 9999 FEW030 SCT042 14/08 Q1014 NOSIG
Conditions at: LEMG (MALAGA (CIV/MIL), ES) observed 1700 UTC 20 January 2019
Temperature: 14.0°C (57°F)
Dewpoint: 8.0°C (46°F) [RH = 67%]
Pressure (altimeter): 29.94 inches Hg (1014.0 mb)
Winds: from the NW (310 degrees) at 10 MPH (9 knots; 4.6 m/s)
Visibility: 6 or more miles (10+ km)
Ceiling: at least 12,000 feet AGL
Clouds: few clouds at 3000 feet AGL
scattered clouds at 4200 feet AGL
Weather: no significant weather observed at this time

METAR text: LEMG 201630Z 31008KT 9999 FEW030 SCT042 14/08 Q1014 NOSIG
Conditions at: LEMG (MALAGA (CIV/MIL), ES) observed 1630 UTC 20 January 2019
Temperature: 14.0°C (57°F)
Dewpoint: 8.0°C (46°F) [RH = 67%]
Pressure (altimeter): 29.94 inches Hg (1014.0 mb)
Winds: from the NW (310 degrees) at 9 MPH (8 knots; 4.1 m/s)
Visibility: 6 or more miles (10+ km)
Ceiling: at least 12,000 feet AGL
Clouds: few clouds at 3000 feet AGL
scattered clouds at 4200 feet AGL
Weather: no significant weather observed at this time

METAR text: LEMG 201600Z 29011KT 9999 FEW030 SCT042 14/08 Q1014 NOSIG
Conditions at: LEMG (MALAGA (CIV/MIL), ES) observed 1600 UTC 20 January 2019
Temperature: 14.0°C (57°F)
Dewpoint: 8.0°C (46°F) [RH = 67%]
Pressure (altimeter): 29.94 inches Hg (1014.0 mb)
Winds: from the WNW (290 degrees) at 13 MPH (11 knots; 5.7 m/s)
Visibility: 6 or more miles (10+ km)
Ceiling: at least 12,000 feet AGL
Clouds: few clouds at 3000 feet AGL
scattered clouds at 4200 feet AGL
Weather: no significant weather observed at this time

METAR text: LEMG 201530Z 30013G24KT 9999 SCT030 SCT037 14/07 Q1013 NOSIG
Conditions at: LEMG (MALAGA (CIV/MIL), ES) observed 1530 UTC 20 January 2019
Temperature: 14.0°C (57°F)
Dewpoint: 7.0°C (45°F) [RH = 63%]
Pressure (altimeter): 29.91 inches Hg (1013.0 mb)
Winds: from the WNW (300 degrees) at 15 MPH (13 knots; 6.7 m/s)
gusting to 28 MPH (24 knots; 12.3 m/s)
Visibility: 6 or more miles (10+ km)
Ceiling: at least 12,000 feet AGL
Clouds: scattered clouds at 3000 feet AGL
scattered clouds at 3700 feet AGL
Weather: no significant weather observed at this time

METAR text: LEMG 201500Z 30014KT 270V330 9999 SCT030 SCT037 14/08 Q1013 NOSIG
Conditions at: LEMG (MALAGA (CIV/MIL), ES) observed 1500 UTC 20 January 2019
Temperature: 14.0°C (57°F)
Dewpoint: 8.0°C (46°F) [RH = 67%]
Pressure (altimeter): 29.91 inches Hg (1013.0 mb)
Winds: from the WNW (300 degrees) at 16 MPH (14 knots; 7.2 m/s)
Visibility: 6 or more miles (10+ km)
Ceiling: at least 12,000 feet AGL
Clouds: scattered clouds at 3000 feet AGL
scattered clouds at 3700 feet AGL
Weather: no significant weather observed at this time

METAR text: LEMG 201430Z 31012KT 9999 FEW030 SCT038 14/08 Q1013 NOSIG
Conditions at: LEMG (MALAGA (CIV/MIL), ES) observed 1430 UTC 20 January 2019
Temperature: 14.0°C (57°F)
Dewpoint: 8.0°C (46°F) [RH = 67%]
Pressure (altimeter): 29.91 inches Hg (1013.0 mb)
Winds: from the NW (310 degrees) at 14 MPH (12 knots; 6.2 m/s)
Visibility: 6 or more miles (10+ km)
Ceiling: at least 12,000 feet AGL
Clouds: few clouds at 3000 feet AGL
scattered clouds at 3800 feet AGL
Weather: no significant weather observed at this time

METAR text: LEMG 201400Z 30013KT 260V330 9999 FEW030 SCT038 14/08 Q1013 NOSIG
Conditions at: LEMG (MALAGA (CIV/MIL), ES) observed 1400 UTC 20 January 2019
Temperature: 14.0°C (57°F)
Dewpoint: 8.0°C (46°F) [RH = 67%]
Pressure (altimeter): 29.91 inches Hg (1013.0 mb)
Winds: from the WNW (300 degrees) at 15 MPH (13 knots; 6.7 m/s)
Visibility: 6 or more miles (10+ km)
Ceiling: at least 12,000 feet AGL
Clouds: few clouds at 3000 feet AGL
scattered clouds at 3800 feet AGL
Weather: no significant weather observed at this time

METAR text: LEMG 201330Z 29011KT 260V330 9999 FEW030 SCT038 14/08 Q1013 NOSIG
Conditions at: LEMG (MALAGA (CIV/MIL), ES) observed 1330 UTC 20 January 2019
Temperature: 14.0°C (57°F)
Dewpoint: 8.0°C (46°F) [RH = 67%]
Pressure (altimeter): 29.91 inches Hg (1013.0 mb)
Winds: from the WNW (290 degrees) at 13 MPH (11 knots; 5.7 m/s)
Visibility: 6 or more miles (10+ km)
Ceiling: at least 12,000 feet AGL
Clouds: few clouds at 3000 feet AGL
scattered clouds at 3800 feet AGL
Weather: no significant weather observed at this time

METAR text: LEMG 201300Z 30014KT 280V340 9999 FEW028 SCT034 14/09 Q1013 NOSIG
Conditions at: LEMG (MALAGA (CIV/MIL), ES) observed 1300 UTC 20 January 2019
Temperature: 14.0°C (57°F)
Dewpoint: 9.0°C (48°F) [RH = 72%]
Pressure (altimeter): 29.91 inches Hg (1013.0 mb)
Winds: from the WNW (300 degrees) at 16 MPH (14 knots; 7.2 m/s)
Visibility: 6 or more miles (10+ km)
Ceiling: at least 12,000 feet AGL
Clouds: few clouds at 2800 feet AGL
scattered clouds at 3400 feet AGL
Weather: no significant weather observed at this time

METAR text: LEMG 201230Z 30013G23KT 270V330 9999 FEW028 SCT034 14/09 Q1013 NOSIG
Conditions at: LEMG (MALAGA (CIV/MIL), ES) observed 1230 UTC 20 January 2019
Temperature: 14.0°C (57°F)
Dewpoint: 9.0°C (48°F) [RH = 72%]
Pressure (altimeter): 29.91 inches Hg (1013.0 mb)
Winds: from the WNW (300 degrees) at 15 MPH (13 knots; 6.7 m/s)
gusting to 26 MPH (23 knots; 11.8 m/s)
Visibility: 6 or more miles (10+ km)
Ceiling: at least 12,000 feet AGL
Clouds: few clouds at 2800 feet AGL
scattered clouds at 3400 feet AGL
Weather: no significant weather observed at this time

METAR text: LEMG 201200Z 30011G22KT 260V330 9999 FEW028 SCT034 14/09 Q1013 NOSIG
Conditions at: LEMG (MALAGA (CIV/MIL), ES) observed 1200 UTC 20 January 2019
Temperature: 14.0°C (57°F)
Dewpoint: 9.0°C (48°F) [RH = 72%]
Pressure (altimeter): 29.91 inches Hg (1013.0 mb)
Winds: from the WNW (300 degrees) at 13 MPH (11 knots; 5.7 m/s)
gusting to 25 MPH (22 knots; 11.3 m/s)
Visibility: 6 or more miles (10+ km)
Ceiling: at least 12,000 feet AGL
Clouds: few clouds at 2800 feet AGL
scattered clouds at 3400 feet AGL
Weather: no significant weather observed at this time

METAR text: LEMG 201130Z 31013G23KT 9999 FEW028 SCT034 14/09 Q1013 NOSIG
Conditions at: LEMG (MALAGA (CIV/MIL), ES) observed 1130 UTC 20 January 2019
Temperature: 14.0°C (57°F)
Dewpoint: 9.0°C (48°F) [RH = 72%]
Pressure (altimeter): 29.91 inches Hg (1013.0 mb)
Winds: from the NW (310 degrees) at 15 MPH (13 knots; 6.7 m/s)
gusting to 26 MPH (23 knots; 11.8 m/s)
Visibility: 6 or more miles (10+ km)
Ceiling: at least 12,000 feet AGL
Clouds: few clouds at 2800 feet AGL
scattered clouds at 3400 feet AGL
Weather: no significant weather observed at this time

METAR text: LEMG 201100Z 29011G21KT 9999 SCT028 SCT044 15/10 Q1013 NOSIG
Conditions at: LEMG (MALAGA (CIV/MIL), ES) observed 1100 UTC 20 January 2019
Temperature: 15.0°C (59°F)
Dewpoint: 10.0°C (50°F) [RH = 72%]
Pressure (altimeter): 29.91 inches Hg (1013.0 mb)
Winds: from the WNW (290 degrees) at 13 MPH (11 knots; 5.7 m/s)
gusting to 24 MPH (21 knots; 10.8 m/s)
Visibility: 6 or more miles (10+ km)
Ceiling: at least 12,000 feet AGL
Clouds: scattered clouds at 2800 feet AGL
scattered clouds at 4400 feet AGL
Weather: no significant weather observed at this time

METAR text: LEMG 201030Z 29014KT 270V330 9999 FEW028 SCT040 15/10 Q1013 NOSIG
Conditions at: LEMG (MALAGA (CIV/MIL), ES) observed 1030 UTC 20 January 2019
Temperature: 15.0°C (59°F)
Dewpoint: 10.0°C (50°F) [RH = 72%]
Pressure (altimeter): 29.91 inches Hg (1013.0 mb)
Winds: from the WNW (290 degrees) at 16 MPH (14 knots; 7.2 m/s)
Visibility: 6 or more miles (10+ km)
Ceiling: at least 12,000 feet AGL
Clouds: few clouds at 2800 feet AGL
scattered clouds at 4000 feet AGL
Weather: no significant weather observed at this time

METAR text: LEMG 201000Z 30008KT 270V330 9999 FEW028 SCT040 14/11 Q1012 NOSIG
Conditions at: LEMG (MALAGA (CIV/MIL), ES) observed 1000 UTC 20 January 2019
Temperature: 14.0°C (57°F)
Dewpoint: 11.0°C (52°F) [RH = 82%]
Pressure (altimeter): 29.88 inches Hg (1012.0 mb)
Winds: from the WNW (300 degrees) at 9 MPH (8 knots; 4.1 m/s)
Visibility: 6 or more miles (10+ km)
Ceiling: at least 12,000 feet AGL
Clouds: few clouds at 2800 feet AGL
scattered clouds at 4000 feet AGL
Weather: no significant weather observed at this time

METAR text: LEMG 200930Z 25003KT 190V320 9999 FEW015 SCT028 BKN044 13/11 Q1012 NOSIG
Conditions at: LEMG (MALAGA (CIV/MIL), ES) observed 0930 UTC 20 January 2019
Temperature: 13.0°C (55°F)
Dewpoint: 11.0°C (52°F) [RH = 88%]
Pressure (altimeter): 29.88 inches Hg (1012.0 mb)
Winds: from the WSW (250 degrees) at 3 MPH (3 knots; 1.5 m/s)
Visibility: 6 or more miles (10+ km)
Ceiling: 4400 feet AGL
Clouds: few clouds at 1500 feet AGL
scattered clouds at 2800 feet AGL
broken clouds at 4400 feet AGL
Weather: no significant weather observed at this time

METAR text: LEMG 200900Z 23004KT 170V270 9999 FEW015 BKN042 13/10 Q1011 NOSIG
Conditions at: LEMG (MALAGA (CIV/MIL), ES) observed 0900 UTC 20 January 2019
Temperature: 13.0°C (55°F)
Dewpoint: 10.0°C (50°F) [RH = 82%]
Pressure (altimeter): 29.85 inches Hg (1011.0 mb)
Winds: from the SW (230 degrees) at 5 MPH (4 knots; 2.1 m/s)
Visibility: 6 or more miles (10+ km)
Ceiling: 4200 feet AGL
Clouds: few clouds at 1500 feet AGL
broken clouds at 4200 feet AGL
Weather: no significant weather observed at this time

METAR text: LEMG 200830Z VRB02KT 9999 FEW030 BKN045 12/10 Q1011 NOSIG
Conditions at: LEMG (MALAGA (CIV/MIL), ES) observed 0830 UTC 20 January 2019
Temperature: 12.0°C (54°F)
Dewpoint: 10.0°C (50°F) [RH = 88%]
Pressure (altimeter): 29.85 inches Hg (1011.0 mb)
Winds: variable direction winds at 2 MPH (2 knots; 1.0 m/s)
Visibility: 6 or more miles (10+ km)
Ceiling: 4500 feet AGL
Clouds: few clouds at 3000 feet AGL
broken clouds at 4500 feet AGL
Weather: no significant weather observed at this time

METAR text: LEMG 200800Z 25005KT 9999 FEW030 BKN045 13/09 Q1011 NOSIG
Conditions at: LEMG (MALAGA (CIV/MIL), ES) observed 0800 UTC 20 January 2019
Temperature: 13.0°C (55°F)
Dewpoint: 9.0°C (48°F) [RH = 77%]
Pressure (altimeter): 29.85 inches Hg (1011.0 mb)
Winds: from the WSW (250 degrees) at 6 MPH (5 knots; 2.6 m/s)
Visibility: 6 or more miles (10+ km)
Ceiling: 4500 feet AGL
Clouds: few clouds at 3000 feet AGL
broken clouds at 4500 feet AGL
Weather: no significant weather observed at this time

METAR text: LEMG 200730Z 00000KT 9999 FEW030 SCT050 11/08 Q1011 NOSIG
Conditions at: LEMG (MALAGA (CIV/MIL), ES) observed 0730 UTC 20 January 2019
Temperature: 11.0°C (52°F)
Dewpoint: 8.0°C (46°F) [RH = 82%]
Pressure (altimeter): 29.85 inches Hg (1011.0 mb)
Winds: calm
Visibility: 6 or more miles (10+ km)
Ceiling: at least 12,000 feet AGL
Clouds: few clouds at 3000 feet AGL
scattered clouds at 5000 feet AGL
Weather: no significant weather observed at this time

METAR text: LEMG 200700Z 26003KT 9999 FEW040 SCT065 12/08 Q1011 NOSIG
Conditions at: LEMG (MALAGA (CIV/MIL), ES) observed 0700 UTC 20 January 2019
Temperature: 12.0°C (54°F)
Dewpoint: 8.0°C (46°F) [RH = 76%]
Pressure (altimeter): 29.85 inches Hg (1011.0 mb)
Winds: from the W (260 degrees) at 3 MPH (3 knots; 1.5 m/s)
Visibility: 6 or more miles (10+ km)
Ceiling: at least 12,000 feet AGL
Clouds: few clouds at 4000 feet AGL
scattered clouds at 6500 feet AGL
Weather: no significant weather observed at this time

METAR text: LEMG 200630Z 30003KT 250V330 9999 FEW030 SCT060 11/08 Q1011 NOSIG
Conditions at: LEMG (MALAGA (CIV/MIL), ES) observed 0630 UTC 20 January 2019
Temperature: 11.0°C (52°F)
Dewpoint: 8.0°C (46°F) [RH = 82%]
Pressure (altimeter): 29.85 inches Hg (1011.0 mb)
Winds: from the WNW (300 degrees) at 3 MPH (3 knots; 1.5 m/s)
Visibility: 6 or more miles (10+ km)
Ceiling: at least 12,000 feet AGL
Clouds: few clouds at 3000 feet AGL
scattered clouds at 6000 feet AGL
Weather: no significant weather observed at this time

METAR text: LEMG 200600Z VRB02KT 9999 FEW020 SCT060 11/09 Q1011 NOSIG
Conditions at: LEMG (MALAGA (CIV/MIL), ES) observed 0600 UTC 20 January 2019
Temperature: 11.0°C (52°F)
Dewpoint: 9.0°C (48°F) [RH = 87%]
Pressure (altimeter): 29.85 inches Hg (1011.0 mb)
Winds: variable direction winds at 2 MPH (2 knots; 1.0 m/s)
Visibility: 6 or more miles (10+ km)
Ceiling: at least 12,000 feet AGL
Clouds: few clouds at 2000 feet AGL
scattered clouds at 6000 feet AGL
Weather: no significant weather observed at this time

METAR text: LEMG 200530Z 29003KT 250V330 9999 FEW020 SCT060 10/09 Q1011 NOSIG
Conditions at: LEMG (MALAGA (CIV/MIL), ES) observed 0530 UTC 20 January 2019
Temperature: 10.0°C (50°F)
Dewpoint: 9.0°C (48°F) [RH = 93%]
Pressure (altimeter): 29.85 inches Hg (1011.0 mb)
Winds: from the WNW (290 degrees) at 3 MPH (3 knots; 1.5 m/s)
Visibility: 6 or more miles (10+ km)
Ceiling: at least 12,000 feet AGL
Clouds: few clouds at 2000 feet AGL
scattered clouds at 6000 feet AGL
Weather: no significant weather observed at this time

METAR text: LEMG 200500Z 27003KT 230V330 9999 FEW020 SCT060 10/09 Q1011 NOSIG
Conditions at: LEMG (MALAGA (CIV/MIL), ES) observed 0500 UTC 20 January 2019
Temperature: 10.0°C (50°F)
Dewpoint: 9.0°C (48°F) [RH = 93%]
Pressure (altimeter): 29.85 inches Hg (1011.0 mb)
Winds: from the W (270 degrees) at 3 MPH (3 knots; 1.5 m/s)
Visibility: 6 or more miles (10+ km)
Ceiling: at least 12,000 feet AGL
Clouds: few clouds at 2000 feet AGL
scattered clouds at 6000 feet AGL
Weather: no significant weather observed at this time

METAR text: LEMG 200430Z 00000KT 9999 FEW015 SCT060 10/09 Q1011 NOSIG
Conditions at: LEMG (MALAGA (CIV/MIL), ES) observed 0430 UTC 20 January 2019
Temperature: 10.0°C (50°F)
Dewpoint: 9.0°C (48°F) [RH = 93%]
Pressure (altimeter): 29.85 inches Hg (1011.0 mb)
Winds: calm
Visibility: 6 or more miles (10+ km)
Ceiling: at least 12,000 feet AGL
Clouds: few clouds at 1500 feet AGL
scattered clouds at 6000 feet AGL
Weather: no significant weather observed at this time

METAR text: LEMG 200400Z 00000KT 9999 FEW015 BKN050 10/10 Q1011 NOSIG
Conditions at: LEMG (MALAGA (CIV/MIL), ES) observed 0400 UTC 20 January 2019
Temperature: 10.0°C (50°F)
Dewpoint: 10.0°C (50°F) [RH = 100%]
Pressure (altimeter): 29.85 inches Hg (1011.0 mb)
Winds: calm
Visibility: 6 or more miles (10+ km)
Ceiling: 5000 feet AGL
Clouds: few clouds at 1500 feet AGL
broken clouds at 5000 feet AGL
Weather: no significant weather observed at this time

METAR text: LEMG 200330Z 31004KT 260V340 9999 FEW015 BKN050 10/10 Q1012 NOSIG
Conditions at: LEMG (MALAGA (CIV/MIL), ES) observed 0330 UTC 20 January 2019
Temperature: 10.0°C (50°F)
Dewpoint: 10.0°C (50°F) [RH = 100%]
Pressure (altimeter): 29.88 inches Hg (1012.0 mb)
Winds: from the NW (310 degrees) at 5 MPH (4 knots; 2.1 m/s)
Visibility: 6 or more miles (10+ km)
Ceiling: 5000 feet AGL
Clouds: few clouds at 1500 feet AGL
broken clouds at 5000 feet AGL
Weather: no significant weather observed at this time

METAR text: LEMG 200300Z 29005KT 260V320 9999 FEW015 SCT050 10/09 Q1012 NOSIG
Conditions at: LEMG (MALAGA (CIV/MIL), ES) observed 0300 UTC 20 January 2019
Temperature: 10.0°C (50°F)
Dewpoint: 9.0°C (48°F) [RH = 93%]
Pressure (altimeter): 29.88 inches Hg (1012.0 mb)
Winds: from the WNW (290 degrees) at 6 MPH (5 knots; 2.6 m/s)
Visibility: 6 or more miles (10+ km)
Ceiling: at least 12,000 feet AGL
Clouds: few clouds at 1500 feet AGL
scattered clouds at 5000 feet AGL
Weather: no significant weather observed at this time

METAR text: LEMG 200230Z 28005KT 240V300 8000 FEW010 SCT050 11/10 Q1012 NOSIG
Conditions at: LEMG (MALAGA (CIV/MIL), ES) observed 0230 UTC 20 January 2019
Temperature: 11.0°C (52°F)
Dewpoint: 10.0°C (50°F) [RH = 94%]
Pressure (altimeter): 29.88 inches Hg (1012.0 mb)
Winds: from the W (280 degrees) at 6 MPH (5 knots; 2.6 m/s)
Visibility: 5 miles ( 8 km)
Ceiling: at least 12,000 feet AGL
Clouds: few clouds at 1000 feet AGL
scattered clouds at 5000 feet AGL
Weather: no significant weather observed at this time

METAR text: LEMG 200200Z 26008KT 8000 SCT010 SCT050 11/10 Q1012 NOSIG
Conditions at: LEMG (MALAGA (CIV/MIL), ES) observed 0200 UTC 20 January 2019
Temperature: 11.0°C (52°F)
Dewpoint: 10.0°C (50°F) [RH = 94%]
Pressure (altimeter): 29.88 inches Hg (1012.0 mb)
Winds: from the W (260 degrees) at 9 MPH (8 knots; 4.1 m/s)
Visibility: 5 miles ( 8 km)
Ceiling: at least 12,000 feet AGL
Clouds: scattered clouds at 1000 feet AGL
scattered clouds at 5000 feet AGL
Weather: no significant weather observed at this time

METAR text: LEMG 200130Z 28007KT 8000 SCT010 SCT075 11/10 Q1012 NOSIG
Conditions at: LEMG (MALAGA (CIV/MIL), ES) observed 0130 UTC 20 January 2019
Temperature: 11.0°C (52°F)
Dewpoint: 10.0°C (50°F) [RH = 94%]
Pressure (altimeter): 29.88 inches Hg (1012.0 mb)
Winds: from the W (280 degrees) at 8 MPH (7 knots; 3.6 m/s)
Visibility: 5 miles ( 8 km)
Ceiling: at least 12,000 feet AGL
Clouds: scattered clouds at 1000 feet AGL
scattered clouds at 7500 feet AGL
Weather: no significant weather observed at this time

METAR text: LEMG 200100Z 28007KT 250V310 8000 SCT010 SCT075 11/10 Q1012 NOSIG
Conditions at: LEMG (MALAGA (CIV/MIL), ES) observed 0100 UTC 20 January 2019
Temperature: 11.0°C (52°F)
Dewpoint: 10.0°C (50°F) [RH = 94%]
Pressure (altimeter): 29.88 inches Hg (1012.0 mb)
Winds: from the W (280 degrees) at 8 MPH (7 knots; 3.6 m/s)
Visibility: 5 miles ( 8 km)
Ceiling: at least 12,000 feet AGL
Clouds: scattered clouds at 1000 feet AGL
scattered clouds at 7500 feet AGL
Weather: no significant weather observed at this time

METAR text: LEMG 200030Z 02005KT 340V070 8000 -RA FEW050 SCT085 11/10 Q1013 RERA NOSIG
Conditions at: LEMG (MALAGA (CIV/MIL), ES) observed 0030 UTC 20 January 2019
Temperature: 11.0°C (52°F)
Dewpoint: 10.0°C (50°F) [RH = 94%]
Pressure (altimeter): 29.91 inches Hg (1013.0 mb)
Winds: from the NNE (20 degrees) at 6 MPH (5 knots; 2.6 m/s)
Visibility: 5 miles ( 8 km)
Ceiling: at least 12,000 feet AGL
Clouds: few clouds at 5000 feet AGL
scattered clouds at 8500 feet AGL
Weather: -RA  (light rain)

METAR text: LEMG 200000Z 21003KT 130V260 8000 RA FEW050 SCT060 11/10 Q1013 NOSIG
Conditions at: LEMG (MALAGA (CIV/MIL), ES) observed 0000 UTC 20 January 2019
Temperature: 11.0°C (52°F)
Dewpoint: 10.0°C (50°F) [RH = 94%]
Pressure (altimeter): 29.91 inches Hg (1013.0 mb)
Winds: from the SSW (210 degrees) at 3 MPH (3 knots; 1.5 m/s)
Visibility: 5 miles ( 8 km)
Ceiling: at least 12,000 feet AGL
Clouds: few clouds at 5000 feet AGL
scattered clouds at 6000 feet AGL
Weather: RA  (moderate rain)

METAR text: LEMG 192330Z VRB01KT 9999 -RA FEW050 SCT060 11/10 Q1014 NOSIG
Conditions at: LEMG (MALAGA (CIV/MIL), ES) observed 2330 UTC 19 January 2019
Temperature: 11.0°C (52°F)
Dewpoint: 10.0°C (50°F) [RH = 94%]
Pressure (altimeter): 29.94 inches Hg (1014.0 mb)
Winds: variable direction winds at 1 MPH (1 knots; 0.5 m/s)
Visibility: 6 or more miles (10+ km)
Ceiling: at least 12,000 feet AGL
Clouds: few clouds at 5000 feet AGL
scattered clouds at 6000 feet AGL
Weather: -RA  (light rain)

METAR text: LEMG 192300Z 30003KT 9999 -RA FEW050 SCT060 11/10 Q1014 NOSIG
Conditions at: LEMG (MALAGA (CIV/MIL), ES) observed 2300 UTC 19 January 2019
Temperature: 11.0°C (52°F)
Dewpoint: 10.0°C (50°F) [RH = 94%]
Pressure (altimeter): 29.94 inches Hg (1014.0 mb)
Winds: from the WNW (300 degrees) at 3 MPH (3 knots; 1.5 m/s)
Visibility: 6 or more miles (10+ km)
Ceiling: at least 12,000 feet AGL
Clouds: few clouds at 5000 feet AGL
scattered clouds at 6000 feet AGL
Weather: -RA  (light rain)

METAR text: LEMG 192230Z 28004KT 9999 -RA FEW050 SCT060 11/10 Q1014 NOSIG
Conditions at: LEMG (MALAGA (CIV/MIL), ES) observed 2230 UTC 19 January 2019
Temperature: 11.0°C (52°F)
Dewpoint: 10.0°C (50°F) [RH = 94%]
Pressure (altimeter): 29.94 inches Hg (1014.0 mb)
Winds: from the W (280 degrees) at 5 MPH (4 knots; 2.1 m/s)
Visibility: 6 or more miles (10+ km)
Ceiling: at least 12,000 feet AGL
Clouds: few clouds at 5000 feet AGL
scattered clouds at 6000 feet AGL
Weather: -RA  (light rain)

METAR text: LEMG 192200Z 31003KT 9999 FEW050 SCT060 11/09 Q1015 NOSIG
Conditions at: LEMG (MALAGA (CIV/MIL), ES) observed 2200 UTC 19 January 2019
Temperature: 11.0°C (52°F)
Dewpoint: 9.0°C (48°F) [RH = 87%]
Pressure (altimeter): 29.97 inches Hg (1015.0 mb)
Winds: from the NW (310 degrees) at 3 MPH (3 knots; 1.5 m/s)
Visibility: 6 or more miles (10+ km)
Ceiling: at least 12,000 feet AGL
Clouds: few clouds at 5000 feet AGL
scattered clouds at 6000 feet AGL
Weather: no significant weather observed at this time

METAR text: LEMG 192130Z 00000KT 9999 FEW050 SCT060 11/09 Q1015 NOSIG
Conditions at: LEMG (MALAGA (CIV/MIL), ES) observed 2130 UTC 19 January 2019
Temperature: 11.0°C (52°F)
Dewpoint: 9.0°C (48°F) [RH = 87%]
Pressure (altimeter): 29.97 inches Hg (1015.0 mb)
Winds: calm
Visibility: 6 or more miles (10+ km)
Ceiling: at least 12,000 feet AGL
Clouds: few clouds at 5000 feet AGL
scattered clouds at 6000 feet AGL
Weather: no significant weather observed at this time

METAR text: LEMG 192100Z 00000KT 9999 FEW050 SCT060 12/09 Q1015 NOSIG
Conditions at: LEMG (MALAGA (CIV/MIL), ES) observed 2100 UTC 19 January 2019
Temperature: 12.0°C (54°F)
Dewpoint: 9.0°C (48°F) [RH = 82%]
Pressure (altimeter): 29.97 inches Hg (1015.0 mb)
Winds: calm
Visibility: 6 or more miles (10+ km)
Ceiling: at least 12,000 feet AGL
Clouds: few clouds at 5000 feet AGL
scattered clouds at 6000 feet AGL
Weather: no significant weather observed at this time

METAR text: LEMG 192030Z 20003KT 9999 FEW050 SCT065 11/09 Q1015 NOSIG
Conditions at: LEMG (MALAGA (CIV/MIL), ES) observed 2030 UTC 19 January 2019
Temperature: 11.0°C (52°F)
Dewpoint: 9.0°C (48°F) [RH = 87%]
Pressure (altimeter): 29.97 inches Hg (1015.0 mb)
Winds: from the SSW (200 degrees) at 3 MPH (3 knots; 1.5 m/s)
Visibility: 6 or more miles (10+ km)
Ceiling: at least 12,000 feet AGL
Clouds: few clouds at 5000 feet AGL
scattered clouds at 6500 feet AGL
Weather: no significant weather observed at this time

METAR text: LEMG 192000Z 00000KT 9999 FEW050 SCT089 11/08 Q1016 NOSIG
Conditions at: LEMG (MALAGA (CIV/MIL), ES) observed 2000 UTC 19 January 2019
Temperature: 11.0°C (52°F)
Dewpoint: 8.0°C (46°F) [RH = 82%]
Pressure (altimeter): 30.00 inches Hg (1016.0 mb)
Winds: calm
Visibility: 6 or more miles (10+ km)
Ceiling: at least 12,000 feet AGL
Clouds: few clouds at 5000 feet AGL
scattered clouds at 8900 feet AGL
Weather: no significant weather observed at this time

METAR text: LEMG 191930Z VRB02KT 9999 FEW050 13/09 Q1016 NOSIG
Conditions at: LEMG (MALAGA (CIV/MIL), ES) observed 1930 UTC 19 January 2019
Temperature: 13.0°C (55°F)
Dewpoint: 9.0°C (48°F) [RH = 77%]
Pressure (altimeter): 30.00 inches Hg (1016.0 mb)
Winds: variable direction winds at 2 MPH (2 knots; 1.0 m/s)
Visibility: 6 or more miles (10+ km)
Ceiling: at least 12,000 feet AGL
Clouds: few clouds at 5000 feet AGL
Weather: no significant weather observed at this time

METAR text: LEMG 191900Z 00000KT 9999 FEW007 SCT040 13/09 Q1016 NOSIG
Conditions at: LEMG (MALAGA (CIV/MIL), ES) observed 1900 UTC 19 January 2019
Temperature: 13.0°C (55°F)
Dewpoint: 9.0°C (48°F) [RH = 77%]
Pressure (altimeter): 30.00 inches Hg (1016.0 mb)
Winds: calm
Visibility: 6 or more miles (10+ km)
Ceiling: at least 12,000 feet AGL
Clouds: few clouds at 700 feet AGL
scattered clouds at 4000 feet AGL
Weather: no significant weather observed at this time

METAR text: LEMG 191830Z 26005KT 230V290 9999 FEW040 SCT050 13/09 Q1016 NOSIG
Conditions at: LEMG (MALAGA (CIV/MIL), ES) observed 1830 UTC 19 January 2019
Temperature: 13.0°C (55°F)
Dewpoint: 9.0°C (48°F) [RH = 77%]
Pressure (altimeter): 30.00 inches Hg (1016.0 mb)
Winds: from the W (260 degrees) at 6 MPH (5 knots; 2.6 m/s)
Visibility: 6 or more miles (10+ km)
Ceiling: at least 12,000 feet AGL
Clouds: few clouds at 4000 feet AGL
scattered clouds at 5000 feet AGL
Weather: no significant weather observed at this time

METAR text: LEMG 191800Z 27003KT 240V300 9999 SCT040 BKN055 13/09 Q1016 NOSIG
Conditions at: LEMG (MALAGA (CIV/MIL), ES) observed 1800 UTC 19 January 2019
Temperature: 13.0°C (55°F)
Dewpoint: 9.0°C (48°F) [RH = 77%]
Pressure (altimeter): 30.00 inches Hg (1016.0 mb)
Winds: from the W (270 degrees) at 3 MPH (3 knots; 1.5 m/s)
Visibility: 6 or more miles (10+ km)
Ceiling: 5500 feet AGL
Clouds: scattered clouds at 4000 feet AGL
broken clouds at 5500 feet AGL
Weather: no significant weather observed at this time

METAR text: LEMG 191730Z 29005KT 250V320 9999 BKN040 13/09 Q1016 NOSIG
Conditions at: LEMG (MALAGA (CIV/MIL), ES) observed 1730 UTC 19 January 2019
Temperature: 13.0°C (55°F)
Dewpoint: 9.0°C (48°F) [RH = 77%]
Pressure (altimeter): 30.00 inches Hg (1016.0 mb)
Winds: from the WNW (290 degrees) at 6 MPH (5 knots; 2.6 m/s)
Visibility: 6 or more miles (10+ km)
Ceiling: 4000 feet AGL
Clouds: broken clouds at 4000 feet AGL
Weather: no significant weather observed at this time

METAR text: LEMG 191700Z 28006KT 9999 FEW040 SCT080 14/08 Q1016 NOSIG
Conditions at: LEMG (MALAGA (CIV/MIL), ES) observed 1700 UTC 19 January 2019
Temperature: 14.0°C (57°F)
Dewpoint: 8.0°C (46°F) [RH = 67%]
Pressure (altimeter): 30.00 inches Hg (1016.0 mb)
Winds: from the W (280 degrees) at 7 MPH (6 knots; 3.1 m/s)
Visibility: 6 or more miles (10+ km)
Ceiling: at least 12,000 feet AGL
Clouds: few clouds at 4000 feet AGL
scattered clouds at 8000 feet AGL
Weather: no significant weather observed at this time

METAR text: LEMG 191630Z 30007KT 9999 FEW040 14/08 Q1016 NOSIG
Conditions at: LEMG (MALAGA (CIV/MIL), ES) observed 1630 UTC 19 January 2019
Temperature: 14.0°C (57°F)
Dewpoint: 8.0°C (46°F) [RH = 67%]
Pressure (altimeter): 30.00 inches Hg (1016.0 mb)
Winds: from the WNW (300 degrees) at 8 MPH (7 knots; 3.6 m/s)
Visibility: 6 or more miles (10+ km)
Ceiling: at least 12,000 feet AGL
Clouds: few clouds at 4000 feet AGL
Weather: no significant weather observed at this time

METAR text: LEMG 191600Z 31008KT 280V340 9999 FEW018 SCT060 14/08 Q1016 NOSIG
Conditions at: LEMG (MALAGA (CIV/MIL), ES) observed 1600 UTC 19 January 2019
Temperature: 14.0°C (57°F)
Dewpoint: 8.0°C (46°F) [RH = 67%]
Pressure (altimeter): 30.00 inches Hg (1016.0 mb)
Winds: from the NW (310 degrees) at 9 MPH (8 knots; 4.1 m/s)
Visibility: 6 or more miles (10+ km)
Ceiling: at least 12,000 feet AGL
Clouds: few clouds at 1800 feet AGL
scattered clouds at 6000 feet AGL
Weather: no significant weather observed at this time

METAR text: LEMG 191530Z 30009KT 9999 FEW018 14/08 Q1016 NOSIG
Conditions at: LEMG (MALAGA (CIV/MIL), ES) observed 1530 UTC 19 January 2019
Temperature: 14.0°C (57°F)
Dewpoint: 8.0°C (46°F) [RH = 67%]
Pressure (altimeter): 30.00 inches Hg (1016.0 mb)
Winds: from the WNW (300 degrees) at 10 MPH (9 knots; 4.6 m/s)
Visibility: 6 or more miles (10+ km)
Ceiling: at least 12,000 feet AGL
Clouds: few clouds at 1800 feet AGL
Weather: no significant weather observed at this time

METAR text: LEMG 191500Z 28012KT 9999 FEW018 14/08 Q1016 NOSIG
Conditions at: LEMG (MALAGA (CIV/MIL), ES) observed 1500 UTC 19 January 2019
Temperature: 14.0°C (57°F)
Dewpoint: 8.0°C (46°F) [RH = 67%]
Pressure (altimeter): 30.00 inches Hg (1016.0 mb)
Winds: from the W (280 degrees) at 14 MPH (12 knots; 6.2 m/s)
Visibility: 6 or more miles (10+ km)
Ceiling: at least 12,000 feet AGL
Clouds: few clouds at 1800 feet AGL
Weather: no significant weather observed at this time

METAR text: LEMG 191430Z 28013KT 9999 FEW015 14/08 Q1016 NOSIG
Conditions at: LEMG (MALAGA (CIV/MIL), ES) observed 1430 UTC 19 January 2019
Temperature: 14.0°C (57°F)
Dewpoint: 8.0°C (46°F) [RH = 67%]
Pressure (altimeter): 30.00 inches Hg (1016.0 mb)
Winds: from the W (280 degrees) at 15 MPH (13 knots; 6.7 m/s)
Visibility: 6 or more miles (10+ km)
Ceiling: at least 12,000 feet AGL
Clouds: few clouds at 1500 feet AGL
Weather: no significant weather observed at this time

METAR text: LEMG 191400Z 29013KT 9999 FEW018 14/08 Q1016 NOSIG
Conditions at: LEMG (MALAGA (CIV/MIL), ES) observed 1400 UTC 19 January 2019
Temperature: 14.0°C (57°F)
Dewpoint: 8.0°C (46°F) [RH = 67%]
Pressure (altimeter): 30.00 inches Hg (1016.0 mb)
Winds: from the WNW (290 degrees) at 15 MPH (13 knots; 6.7 m/s)
Visibility: 6 or more miles (10+ km)
Ceiling: at least 12,000 feet AGL
Clouds: few clouds at 1800 feet AGL
Weather: no significant weather observed at this time

METAR text: LEMG 191330Z 29013KT 270V330 9999 FEW018 14/08 Q1017 NOSIG
Conditions at: LEMG (MALAGA (CIV/MIL), ES) observed 1330 UTC 19 January 2019
Temperature: 14.0°C (57°F)
Dewpoint: 8.0°C (46°F) [RH = 67%]
Pressure (altimeter): 30.03 inches Hg (1017.0 mb)
Winds: from the WNW (290 degrees) at 15 MPH (13 knots; 6.7 m/s)
Visibility: 6 or more miles (10+ km)
Ceiling: at least 12,000 feet AGL
Clouds: few clouds at 1800 feet AGL
Weather: no significant weather observed at this time

METAR text: LEMG 191300Z 29013KT 260V320 9999 FEW018 SCT040 14/08 Q1017 NOSIG
Conditions at: LEMG (MALAGA (CIV/MIL), ES) observed 1300 UTC 19 January 2019
Temperature: 14.0°C (57°F)
Dewpoint: 8.0°C (46°F) [RH = 67%]
Pressure (altimeter): 30.03 inches Hg (1017.0 mb)
Winds: from the WNW (290 degrees) at 15 MPH (13 knots; 6.7 m/s)
Visibility: 6 or more miles (10+ km)
Ceiling: at least 12,000 feet AGL
Clouds: few clouds at 1800 feet AGL
scattered clouds at 4000 feet AGL
Weather: no significant weather observed at this time

METAR text: LEMG 191230Z 27009KT 250V320 9999 FEW018 SCT040 13/09 Q1018 NOSIG
Conditions at: LEMG (MALAGA (CIV/MIL), ES) observed 1230 UTC 19 January 2019
Temperature: 13.0°C (55°F)
Dewpoint: 9.0°C (48°F) [RH = 77%]
Pressure (altimeter): 30.06 inches Hg (1018.0 mb)
Winds: from the W (270 degrees) at 10 MPH (9 knots; 4.6 m/s)
Visibility: 6 or more miles (10+ km)
Ceiling: at least 12,000 feet AGL
Clouds: few clouds at 1800 feet AGL
scattered clouds at 4000 feet AGL
Weather: no significant weather observed at this time

METAR text: LEMG 191200Z 27012KT 9999 FEW018 13/08 Q1018 NOSIG
Conditions at: LEMG (MALAGA (CIV/MIL), ES) observed 1200 UTC 19 January 2019
Temperature: 13.0°C (55°F)
Dewpoint: 8.0°C (46°F) [RH = 72%]
Pressure (altimeter): 30.06 inches Hg (1018.0 mb)
Winds: from the W (270 degrees) at 14 MPH (12 knots; 6.2 m/s)
Visibility: 6 or more miles (10+ km)
Ceiling: at least 12,000 feet AGL
Clouds: few clouds at 1800 feet AGL
Weather: no significant weather observed at this time

METAR text: LEMG 191130Z 28011KT 260V320 9999 FEW015 SCT055 14/09 Q1018 NOSIG
Conditions at: LEMG (MALAGA (CIV/MIL), ES) observed 1130 UTC 19 January 2019
Temperature: 14.0°C (57°F)
Dewpoint: 9.0°C (48°F) [RH = 72%]
Pressure (altimeter): 30.06 inches Hg (1018.0 mb)
Winds: from the W (280 degrees) at 13 MPH (11 knots; 5.7 m/s)
Visibility: 6 or more miles (10+ km)
Ceiling: at least 12,000 feet AGL
Clouds: few clouds at 1500 feet AGL
scattered clouds at 5500 feet AGL
Weather: no significant weather observed at this time

METAR text: LEMG 191100Z 28013KT 250V310 9999 FEW012 SCT055 12/09 Q1019 NOSIG
Conditions at: LEMG (MALAGA (CIV/MIL), ES) observed 1100 UTC 19 January 2019
Temperature: 12.0°C (54°F)
Dewpoint: 9.0°C (48°F) [RH = 82%]
Pressure (altimeter): 30.09 inches Hg (1019.0 mb)
Winds: from the W (280 degrees) at 15 MPH (13 knots; 6.7 m/s)
Visibility: 6 or more miles (10+ km)
Ceiling: at least 12,000 feet AGL
Clouds: few clouds at 1200 feet AGL
scattered clouds at 5500 feet AGL
Weather: no significant weather observed at this time

Forecast for: LEMG (MALAGA (CIV/MIL), ES)
Text: TAF LEMG 201700Z 2018/2118 31012KT 9999 FEW040 TX17/2114Z TN07/2106Z
Forecast period: 1800 UTC 20 January 2019 to 1800 UTC 21 January 2019
Forecast type: FROM: standard forecast or significant change
Winds: from the NW (310 degrees) at 14 MPH (12 knots; 6.2 m/s)
Visibility: 6 or more miles 10+ km)
Ceiling: at least 12,000 feet AGL
Clouds: few clouds at 4000 feet AGL
Weather: no significant weather forecast for this period